YRBN weather

Robertson Airstrip
Carrington Falls, New South Wales, Australia

Public forecast

Using degrees Celsius for public forecast. Weather courtesy of forecast.io.

METAR (pilot weather report)

Closest report is Nowra Airport, 19.0 nm (35.1 km) SSW. Retrieved 2019/03/19 14:00 UTC (32 minutes ago):

YSNW 191400Z AUTO 28003KT 9999 // SCT059 18/18 Q1014

TAF (pilot weather forecast)

Closest forecast is Sydney Kingsford Smith International Airport, 49.6 nm (91.9 km) NNE. Retrieved 2019/03/19 12:44 UTC (2 hours ago):

TAF YSSY 191108Z 1912/2018 23010KT 9999 -SHRA SCT020 FM200100 17015KT 9999 -SHRA SCT025 FM201200 20010KT 9999 -SHRA SCT020 BKN030 INTER 1920/2012 5000 SHRA BKN015